Time;durP1;ratioP1;P1;durP2;ratioP2;P2;SDS_P1;SDS_P2;PMS_P1;PMS_P2;Temp;Humidity;BMP_temperature;BMP_pressure;BME280_temperature;BME280_humidity;BME280_pressure;Samples;Min_cycle;Max_cycle;Signal;HPM_P1;HPM_P2
2023/12/25 00:01:02;;;;;;;0.85;0.80;;;11.10;72.10;;;;;;5002041;28;20338;-58
2023/12/25 00:03:28;;;;;;;2.60;1.50;;;11.10;72.00;;;;;;4998041;28;20351;-58
2023/12/25 00:05:53;;;;;;;2.13;1.20;;;11.20;72.00;;;;;;4998832;28;20060;-59
2023/12/25 00:08:19;;;;;;;1.40;1.20;;;11.20;71.90;;;;;;5002762;28;20034;-58
2023/12/25 00:10:44;;;;;;;1.50;1.00;;;11.20;71.80;;;;;;5002052;28;20110;-58
2023/12/25 00:13:10;;;;;;;1.00;0.90;;;11.20;71.70;;;;;;5001611;28;20061;-57
2023/12/25 00:15:36;;;;;;;2.30;0.82;;;11.20;71.70;;;;;;5000740;28;20592;-59
2023/12/25 00:18:01;;;;;;;3.42;1.02;;;11.20;71.60;;;;;;4999457;28;20464;-59
2023/12/25 00:20:27;;;;;;;2.25;1.00;;;11.20;71.40;;;;;;5001618;28;20065;-58
2023/12/25 00:22:52;;;;;;;1.08;0.90;;;11.20;71.30;;;;;;5002930;28;20035;-59
2023/12/25 00:25:18;;;;;;;3.40;1.10;;;11.30;71.20;;;;;;5004232;28;20046;-57
2023/12/25 00:27:44;;;;;;;3.67;1.02;;;11.30;71.00;;;;;;4995376;28;20038;-58
2023/12/25 00:30:10;;;;;;;1.88;0.88;;;11.30;70.80;;;;;;4998022;28;20088;-58
2023/12/25 00:32:37;;;;;;;2.45;1.13;;;11.30;70.60;;;;;;5000308;28;20124;-58
2023/12/25 00:35:03;;;;;;;1.33;0.77;;;11.40;70.30;;;;;;5001097;28;21548;-58
2023/12/25 00:37:28;;;;;;;1.67;1.00;;;11.40;70.10;;;;;;5000641;28;20038;-57
2023/12/25 00:39:54;;;;;;;3.63;0.93;;;11.40;69.70;;;;;;4997588;28;20495;-58
2023/12/25 00:42:19;;;;;;;2.30;1.05;;;11.50;69.40;;;;;;5002367;28;20037;-59
2023/12/25 00:44:46;;;;;;;3.25;1.80;;;11.50;69.10;;;;;;5001404;28;20369;-58
2023/12/25 00:47:12;;;;;;;3.58;1.55;;;11.60;68.50;;;;;;4913664;28;20038;-58
2023/12/25 00:49:38;;;;;;;1.17;1.08;;;11.60;68.30;;;;;;5000294;28;20030;-58
2023/12/25 00:52:04;;;;;;;2.78;1.48;;;11.80;68.00;;;;;;5005143;28;20049;-59
2023/12/25 00:54:31;;;;;;;1.67;1.40;;;11.90;67.10;;;;;;5000783;28;20121;-58
2023/12/25 00:57:00;;;;;;;1.33;1.00;;;11.90;67.10;;;;;;5001317;28;20022;-57
2023/12/25 00:59:26;;;;;;;1.45;1.10;;;12.00;66.80;;;;;;4997257;28;20038;-58
2023/12/25 01:01:51;;;;;;;1.95;0.95;;;12.10;66.40;;;;;;5001162;28;20041;-58
2023/12/25 01:04:18;;;;;;;1.33;0.90;;;12.10;66.50;;;;;;4996229;28;20344;-57
2023/12/25 01:06:43;;;;;;;0.95;0.70;;;12.20;66.30;;;;;;5000685;28;20041;-57
2023/12/25 01:09:09;;;;;;;1.38;0.80;;;12.20;65.90;;;;;;5001387;28;20486;-59
2023/12/25 01:11:42;;;;;;;2.08;1.00;;;12.20;65.60;;;;;;4997545;28;20393;-59
2023/12/25 01:14:08;;;;;;;1.48;1.00;;;12.20;64.80;;;;;;5000838;28;20045;-59
2023/12/25 01:16:38;;;;;;;2.67;1.10;;;12.20;65.20;;;;;;4995790;28;20034;-58
2023/12/25 01:19:04;;;;;;;1.38;1.13;;;12.30;64.90;;;;;;4994960;28;20037;-58
2023/12/25 01:21:32;;;;;;;4.57;1.48;;;12.30;64.90;;;;;;4998884;28;20022;-58
2023/12/25 01:23:58;;;;;;;2.92;1.23;;;12.30;64.70;;;;;;5000369;28;20129;-57
2023/12/25 01:26:23;;;;;;;3.70;0.95;;;12.30;64.50;;;;;;5005821;28;20107;-58
2023/12/25 01:28:49;;;;;;;3.67;1.60;;;12.30;65.10;;;;;;5000286;28;20140;-58
2023/12/25 01:31:14;;;;;;;3.10;1.33;;;12.30;64.10;;;;;;5004728;28;20041;-58
2023/12/25 01:33:40;;;;;;;1.50;1.20;;;12.30;64.00;;;;;;4997275;28;20037;-59
2023/12/25 01:36:06;;;;;;;2.28;1.38;;;12.30;63.70;;;;;;5000236;28;20049;-59
2023/12/25 01:38:31;;;;;;;1.90;1.35;;;12.30;63.30;;;;;;4997876;28;20033;-59
2023/12/25 01:40:57;;;;;;;3.10;1.33;;;12.30;63.50;;;;;;5001106;28;20396;-58
2023/12/25 01:43:23;;;;;;;1.98;1.20;;;12.40;63.60;;;;;;4997870;28;20068;-59
2023/12/25 01:45:48;;;;;;;1.58;0.90;;;12.40;63.20;;;;;;4930947;28;20026;-59
2023/12/25 01:48:14;;;;;;;1.77;1.00;;;12.30;63.20;;;;;;4998204;28;20611;-59
2023/12/25 01:50:40;;;;;;;1.38;0.85;;;12.30;63.20;;;;;;5008199;28;20030;-59
2023/12/25 01:53:05;;;;;;;2.00;0.98;;;12.30;63.30;;;;;;4998618;28;20030;-58
2023/12/25 01:55:32;;;;;;;1.98;1.27;;;12.30;63.10;;;;;;4999632;28;20488;-59
2023/12/25 01:57:57;;;;;;;4.45;1.40;;;12.30;63.20;;;;;;4995250;28;20025;-58
2023/12/25 02:00:23;;;;;;;3.50;1.40;;;12.30;63.10;;;;;;5000256;28;20037;-58
2023/12/25 02:02:50;;;;;;;5.13;1.52;;;12.30;63.30;;;;;;5000124;28;20061;-58
2023/12/25 02:05:16;;;;;;;4.28;1.63;;;12.20;63.40;;;;;;5000859;28;20030;-58
2023/12/25 02:07:48;;;;;;;3.65;1.60;;;12.20;63.40;;;;;;5002059;28;20093;-58
2023/12/25 02:10:28;;;;;;;2.15;1.27;;;12.20;63.50;;;;;;5001015;28;20570;-58
2023/12/25 02:12:54;;;;;;;3.33;1.10;;;12.10;63.30;;;;;;5003564;28;20033;-58
2023/12/25 02:15:20;;;;;;;2.45;1.20;;;12.10;63.90;;;;;;5001646;28;20034;-57
2023/12/25 02:17:46;;;;;;;1.17;1.00;;;12.10;64.00;;;;;;5002583;28;20041;-58
2023/12/25 02:20:13;;;;;;;4.43;1.10;;;12.00;64.20;;;;;;5002125;28;20049;-58
2023/12/25 02:22:40;;;;;;;2.13;1.17;;;12.00;64.40;;;;;;5003816;28;20032;-58
2023/12/25 02:25:15;;;;;;;4.32;1.27;;;11.90;64.50;;;;;;4981701;28;20555;-58
2023/12/25 02:27:40;;;;;;;;;;;11.90;64.40;;;;;;4999995;28;20037;-58
2023/12/25 02:30:06;;;;;;;4.88;1.50;;;11.90;64.40;;;;;;5005468;28;19913;-58
2023/12/25 02:32:32;;;;;;;3.85;1.67;;;11.80;64.90;;;;;;5000382;28;20034;-59
2023/12/25 02:34:58;;;;;;;5.20;1.67;;;11.80;65.70;;;;;;5000495;28;20038;-60
2023/12/25 02:37:23;;;;;;;2.85;1.50;;;11.70;65.10;;;;;;5002641;28;20030;-57
2023/12/25 02:39:49;;;;;;;3.90;1.75;;;11.60;65.40;;;;;;4978837;28;20382;-59
2023/12/25 02:42:15;;;;;;;1.65;1.27;;;11.60;65.60;;;;;;5003149;28;20072;-57
2023/12/25 02:44:40;;;;;;;2.78;1.30;;;11.50;65.70;;;;;;5003780;28;20485;-59
2023/12/25 02:47:06;;;;;;;1.88;0.90;;;11.50;65.90;;;;;;5002326;28;20056;-58
2023/12/25 02:49:32;;;;;;;4.20;1.15;;;11.40;66.00;;;;;;5006202;28;20392;-59
2023/12/25 02:51:57;;;;;;;1.75;1.10;;;11.40;66.00;;;;;;5006318;28;20039;-57
2023/12/25 02:54:23;;;;;;;2.38;1.17;;;11.30;66.10;;;;;;5003044;28;20048;-57
2023/12/25 02:56:49;;;;;;;3.90;1.30;;;11.30;66.00;;;;;;5002511;28;20080;-59
2023/12/25 02:59:14;;;;;;;0.93;0.82;;;11.30;65.90;;;;;;5006848;28;20109;-58
2023/12/25 03:01:40;;;;;;;3.20;1.48;;;11.20;65.70;;;;;;5002870;28;20121;-58
2023/12/25 03:04:06;;;;;;;2.88;1.15;;;11.20;65.60;;;;;;5001864;28;20030;-58
2023/12/25 03:06:32;;;;;;;4.00;1.15;;;11.20;65.30;;;;;;5002904;28;20041;-58
2023/12/25 03:08:57;;;;;;;2.30;1.02;;;11.20;65.20;;;;;;5002040;28;20044;-58
2023/12/25 03:11:23;;;;;;;3.92;0.90;;;11.20;65.10;;;;;;5002828;28;20025;-59
2023/12/25 03:13:49;;;;;;;1.55;1.02;;;11.20;65.10;;;;;;5003398;28;20176;-58
2023/12/25 03:16:14;;;;;;;1.30;0.70;;;11.20;65.20;;;;;;5000124;28;20029;-57
2023/12/25 03:18:40;;;;;;;0.65;0.50;;;11.20;65.30;;;;;;5002111;28;20034;-58
2023/12/25 03:21:06;;;;;;;1.27;0.70;;;11.20;65.50;;;;;;5002241;28;20192;-60
2023/12/25 03:23:31;;;;;;;0.65;0.65;;;11.20;65.60;;;;;;5001684;28;20034;-58
2023/12/25 03:25:57;;;;;;;2.50;0.98;;;11.20;65.70;;;;;;5003586;28;20484;-59
2023/12/25 03:28:23;;;;;;;1.83;0.93;;;11.20;65.80;;;;;;5006070;28;20049;-58
2023/12/25 03:30:49;;;;;;;6.32;1.20;;;11.10;65.80;;;;;;5002427;28;20391;-58
2023/12/25 03:33:15;;;;;;;2.53;1.00;;;11.10;65.80;;;;;;5001870;28;20038;-60
2023/12/25 03:35:41;;;;;;;1.98;0.85;;;11.10;65.80;;;;;;4998769;28;20030;-59
2023/12/25 03:38:06;;;;;;;1.95;0.70;;;11.00;65.70;;;;;;4984846;28;20034;-59
2023/12/25 03:40:33;;;;;;;3.03;1.05;;;11.00;65.70;;;;;;5003377;28;20030;-60
2023/12/25 03:42:58;;;;;;;1.05;0.77;;;11.00;65.70;;;;;;5004191;28;20476;-59
2023/12/25 03:45:24;;;;;;;3.72;1.25;;;11.00;65.80;;;;;;4925922;28;20117;-58
2023/12/25 03:47:50;;;;;;;1.30;0.60;;;10.90;65.80;;;;;;4997407;28;20037;-59
2023/12/25 03:50:15;;;;;;;2.42;1.17;;;10.80;65.80;;;;;;4980635;28;20043;-59
2023/12/25 03:52:41;;;;;;;2.38;0.90;;;10.80;65.80;;;;;;5002065;28;20131;-59
2023/12/25 03:55:07;;;;;;;1.65;0.80;;;10.80;65.90;;;;;;5006121;28;20508;-59
2023/12/25 03:57:33;;;;;;;2.03;0.90;;;10.70;66.00;;;;;;5005310;28;20018;-59
2023/12/25 03:59:58;;;;;;;1.02;0.70;;;10.60;66.10;;;;;;5005043;28;20045;-59
2023/12/25 04:02:24;;;;;;;3.03;0.93;;;10.60;66.20;;;;;;4998070;28;20065;-59
2023/12/25 04:04:50;;;;;;;1.92;1.20;;;10.60;66.30;;;;;;5003192;28;20032;-58
2023/12/25 04:07:16;;;;;;;2.50;1.05;;;10.50;66.40;;;;;;5000839;28;20038;-58
2023/12/25 04:09:42;;;;;;;5.90;1.40;;;10.40;66.40;;;;;;5002219;28;20022;-57
2023/12/25 04:12:08;;;;;;;7.85;1.67;;;10.30;66.50;;;;;;5002314;28;20034;-58
2023/12/25 04:14:38;;;;;;;4.28;1.20;;;10.30;66.60;;;;;;5003175;28;20026;-60
2023/12/25 04:17:04;;;;;;;1.77;1.15;;;10.20;66.70;;;;;;5001108;28;20140;-60
2023/12/25 04:19:29;;;;;;;1.67;1.10;;;10.20;66.90;;;;;;5005058;28;20022;-58
2023/12/25 04:21:55;;;;;;;3.30;0.98;;;10.10;67.00;;;;;;4998663;28;20032;-59
2023/12/25 04:24:20;;;;;;;1.55;0.90;;;10.10;67.10;;;;;;4998357;28;20481;-59
2023/12/25 04:26:46;;;;;;;4.90;0.88;;;10.00;67.30;;;;;;5001896;28;20061;-58
2023/12/25 04:29:12;;;;;;;1.35;1.20;;;10.00;67.40;;;;;;4999604;28;20048;-58
2023/12/25 04:31:37;;;;;;;3.38;0.90;;;10.00;67.60;;;;;;5000607;28;20026;-58
2023/12/25 04:34:03;;;;;;;1.05;0.90;;;9.90;67.60;;;;;;4999659;28;20041;-59
2023/12/25 04:36:29;;;;;;;2.60;0.90;;;9.80;67.80;;;;;;5001332;28;20044;-58
2023/12/25 04:38:54;;;;;;;2.13;1.00;;;9.80;68.00;;;;;;5001444;28;20030;-58
2023/12/25 04:41:21;;;;;;;1.63;1.00;;;9.80;68.20;;;;;;5002528;28;20030;-58
2023/12/25 04:43:47;;;;;;;1.65;1.00;;;9.80;68.40;;;;;;4997330;28;20129;-59
2023/12/25 04:46:13;;;;;;;1.65;0.90;;;9.70;68.50;;;;;;4906646;28;20030;-59
2023/12/25 04:48:38;;;;;;;1.00;0.90;;;9.70;68.60;;;;;;5004203;28;20042;-58
2023/12/25 04:51:04;;;;;;;1.00;0.93;;;9.70;68.80;;;;;;5002049;28;20457;-58
2023/12/25 04:53:31;;;;;;;4.50;1.10;;;9.60;68.70;;;;;;4998065;28;20050;-59
2023/12/25 04:55:57;;;;;;;1.23;0.93;;;9.70;68.80;;;;;;5000601;28;20026;-57
2023/12/25 04:58:24;;;;;;;1.42;0.90;;;9.70;69.50;;;;;;5002321;28;20057;-58
2023/12/25 05:00:50;;;;;;;4.22;1.10;;;9.60;68.80;;;;;;5000809;28;20025;-58
2023/12/25 05:03:15;;;;;;;1.08;0.77;;;9.60;68.90;;;;;;4994892;28;20042;-58
2023/12/25 05:05:41;;;;;;;2.42;1.15;;;9.60;68.90;;;;;;5000549;28;20029;-58
2023/12/25 05:08:07;;;;;;;4.47;1.30;;;9.60;68.80;;;;;;5000496;28;20072;-58
2023/12/25 05:10:32;;;;;;;1.52;1.00;;;9.60;68.50;;;;;;5001558;28;20030;-58
2023/12/25 05:12:58;;;;;;;2.45;1.33;;;9.60;68.00;;;;;;4999595;28;20060;-58
2023/12/25 05:15:23;;;;;;;2.47;1.10;;;9.60;67.60;;;;;;5002027;28;20030;-58
2023/12/25 05:17:49;;;;;;;2.10;0.90;;;9.60;67.50;;;;;;5000903;28;20034;-58
2023/12/25 05:20:15;;;;;;;2.25;0.90;;;9.60;67.30;;;;;;5001132;28;20113;-59
2023/12/25 05:22:40;;;;;;;2.08;1.10;;;9.60;67.30;;;;;;4999841;28;20443;-58
2023/12/25 05:25:06;;;;;;;5.53;1.30;;;9.60;67.20;;;;;;4984103;28;20038;-59
2023/12/25 05:27:32;;;;;;;2.65;1.40;;;9.60;67.20;;;;;;5007334;28;20041;-60
2023/12/25 05:29:58;;;;;;;2.55;1.23;;;9.60;67.10;;;;;;5001960;28;20457;-59
2023/12/25 05:32:24;;;;;;;1.80;1.20;;;9.60;67.20;;;;;;4995992;28;20026;-59
2023/12/25 05:34:50;;;;;;;2.08;1.10;;;9.60;67.20;;;;;;4983240;28;20030;-59
2023/12/25 05:37:15;;;;;;;1.15;0.80;;;9.60;67.20;;;;;;5001380;28;20400;-59
2023/12/25 05:39:41;;;;;;;3.90;1.17;;;9.50;67.20;;;;;;5000988;28;20037;-59
2023/12/25 05:42:07;;;;;;;3.47;1.25;;;9.50;67.20;;;;;;5002299;28;20076;-60
2023/12/25 05:44:32;;;;;;;4.20;1.65;;;9.40;67.40;;;;;;5001633;28;20377;-59
2023/12/25 05:46:58;;;;;;;3.80;1.50;;;9.40;67.50;;;;;;4935518;28;20053;-59
2023/12/25 05:49:23;;;;;;;6.47;1.60;;;9.40;67.50;;;;;;5001548;28;20026;-60
2023/12/25 05:51:49;;;;;;;3.72;1.50;;;9.40;67.70;;;;;;5002992;28;20034;-59
2023/12/25 05:54:15;;;;;;;4.45;1.77;;;9.30;67.70;;;;;;5003000;28;20132;-59
2023/12/25 05:56:40;;;;;;;4.32;2.17;;;9.30;67.70;;;;;;5004122;28;20087;-59
2023/12/25 05:59:06;;;;;;;2.90;1.65;;;9.20;67.80;;;;;;5005292;28;20196;-59
2023/12/25 06:01:32;;;;;;;3.35;1.65;;;9.20;68.00;;;;;;5001707;28;20026;-59
2023/12/25 06:03:58;;;;;;;4.25;1.88;;;9.20;68.10;;;;;;5007374;28;20022;-58
2023/12/25 06:06:24;;;;;;;9.95;2.53;;;9.10;68.20;;;;;;4989876;28;20490;-59
2023/12/25 06:08:50;;;;;;;4.82;1.85;;;9.10;68.30;;;;;;5001910;28;20050;-58
2023/12/25 06:11:16;;;;;;;2.83;1.27;;;9.10;68.30;;;;;;5003902;28;20030;-60
2023/12/25 06:13:41;;;;;;;1.30;1.17;;;9.10;68.40;;;;;;5000445;28;20519;-58
2023/12/25 06:16:07;;;;;;;3.25;1.02;;;9.10;68.40;;;;;;5002191;28;20037;-58
2023/12/25 06:18:33;;;;;;;1.58;1.10;;;9.10;68.40;;;;;;5004053;28;20037;-59
2023/12/25 06:20:59;;;;;;;4.25;1.52;;;9.10;68.50;;;;;;5003761;28;20034;-57
2023/12/25 06:23:24;;;;;;;2.03;1.27;;;9.00;68.30;;;;;;5003150;28;20041;-58
2023/12/25 06:25:50;;;;;;;1.38;1.20;;;9.00;68.00;;;;;;5003865;28;20026;-59
2023/12/25 06:28:16;;;;;;;3.17;1.20;;;9.10;68.10;;;;;;5005389;28;20072;-59
2023/12/25 06:30:41;;;;;;;3.88;1.40;;;9.10;68.20;;;;;;5003262;28;20034;-58
2023/12/25 06:33:07;;;;;;;2.03;1.40;;;9.00;68.30;;;;;;5001139;28;20038;-58
2023/12/25 06:35:33;;;;;;;2.53;1.25;;;9.10;68.40;;;;;;4990307;28;20034;-60
2023/12/25 06:37:58;;;;;;;4.72;1.40;;;9.10;68.60;;;;;;5003176;28;20037;-59
2023/12/25 06:40:24;;;;;;;4.07;1.60;;;9.10;68.60;;;;;;5004549;28;20029;-60
2023/12/25 06:42:49;;;;;;;3.35;1.40;;;9.10;68.60;;;;;;5002299;28;20076;-59
2023/12/25 06:45:18;;;;;;;1.58;1.17;;;9.10;68.60;;;;;;4956807;28;20080;-56
2023/12/25 06:47:44;;;;;;;5.25;1.25;;;9.10;68.50;;;;;;4980253;28;20041;-59
2023/12/25 06:50:11;;;;;;;2.15;1.20;;;9.10;68.40;;;;;;4998894;28;20763;-59
2023/12/25 06:52:40;;;;;;;1.90;1.10;;;9.10;68.40;;;;;;5005829;28;20037;-58
2023/12/25 06:55:06;;;;;;;1.08;0.82;;;9.10;68.40;;;;;;5002436;28;20547;-58
2023/12/25 06:57:32;;;;;;;1.02;0.93;;;9.10;68.50;;;;;;5002371;28;20026;-58
2023/12/25 06:59:57;;;;;;;1.30;1.10;;;9.10;68.40;;;;;;5002559;28;20558;-58
2023/12/25 07:02:23;;;;;;;2.85;0.90;;;9.10;68.40;;;;;;5002105;28;20144;-60
2023/12/25 07:04:49;;;;;;;3.65;1.52;;;9.10;68.40;;;;;;5004786;28;20034;-60
2023/12/25 07:07:14;;;;;;;1.45;1.20;;;9.10;68.40;;;;;;5003478;28;20042;-58
2023/12/25 07:09:42;;;;;;;3.28;1.35;;;9.10;68.30;;;;;;5002812;28;20030;-60
2023/12/25 07:12:08;;;;;;;1.77;1.30;;;9.10;68.20;;;;;;5001070;28;20035;-59
2023/12/25 07:14:33;;;;;;;3.00;0.90;;;9.10;68.10;;;;;;5002051;28;20044;-58
2023/12/25 07:17:00;;;;;;;1.67;1.13;;;9.10;68.20;;;;;;5003372;28;20527;-58
2023/12/25 07:19:25;;;;;;;1.55;1.17;;;9.10;68.20;;;;;;5000967;28;20476;-58
2023/12/25 07:21:51;;;;;;;1.52;1.00;;;9.20;68.10;;;;;;5003035;28;20026;-59
2023/12/25 07:24:16;;;;;;;3.55;1.10;;;9.10;67.90;;;;;;5001570;28;20021;-58
2023/12/25 07:26:42;;;;;;;1.23;1.00;;;9.20;67.80;;;;;;5002164;28;20437;-59
2023/12/25 07:29:08;;;;;;;1.25;1.15;;;9.20;67.80;;;;;;5005750;28;20106;-60
2023/12/25 07:31:34;;;;;;;4.15;2.00;;;9.20;67.60;;;;;;4999557;28;20057;-60
2023/12/25 07:34:00;;;;;;;5.18;1.50;;;9.20;67.50;;;;;;5001287;28;20681;-60
2023/12/25 07:36:27;;;;;;;2.38;1.50;;;9.30;67.70;;;;;;5002461;28;20039;-60
2023/12/25 07:38:52;;;;;;;2.95;1.65;;;9.30;67.80;;;;;;5002138;28;20481;-61
2023/12/25 07:41:18;;;;;;;1.73;1.38;;;9.40;67.70;;;;;;5003392;28;20069;-61
2023/12/25 07:43:44;;;;;;;2.20;1.30;;;9.40;67.30;;;;;;5002315;28;20026;-61
2023/12/25 07:46:09;;;;;;;2.33;1.13;;;9.40;67.20;;;;;;4924767;28;20034;-62
2023/12/25 07:48:35;;;;;;;2.40;1.20;;;9.40;67.20;;;;;;5000596;28;20556;-60
2023/12/25 07:51:01;;;;;;;1.58;1.13;;;9.50;67.40;;;;;;5001205;28;20030;-60
2023/12/25 07:53:28;;;;;;;7.20;2.85;;;9.50;67.40;;;;;;5001949;28;20046;-61
2023/12/25 07:55:53;;;;;;;7.45;3.08;;;9.50;67.30;;;;;;5003061;28;20026;-61
2023/12/25 07:58:19;;;;;;;4.68;2.78;;;9.60;67.30;;;;;;4998782;28;20030;-61
2023/12/25 08:00:45;;;;;;;5.63;2.40;;;9.60;67.30;;;;;;5000943;28;20029;-61
2023/12/25 08:03:11;;;;;;;4.95;2.47;;;9.60;67.50;;;;;;4984581;28;20033;-62
2023/12/25 08:05:38;;;;;;;3.60;2.13;;;9.70;67.60;;;;;;4999796;28;20042;-61
2023/12/25 08:08:04;;;;;;;2.28;1.77;;;9.70;67.60;;;;;;4998603;28;20049;-60
2023/12/25 08:10:30;;;;;;;2.65;1.83;;;9.80;67.50;;;;;;4991872;28;20038;-61
2023/12/25 08:12:56;;;;;;;2.88;2.10;;;9.80;67.50;;;;;;5002962;28;20025;-61
2023/12/25 08:15:21;;;;;;;3.47;2.20;;;9.80;67.60;;;;;;5001375;28;20553;-59
2023/12/25 08:17:47;;;;;;;4.40;2.35;;;9.90;67.60;;;;;;5002087;28;20044;-61
2023/12/25 08:20:12;;;;;;;5.03;2.53;;;9.90;67.40;;;;;;5002295;28;20550;-61
2023/12/25 08:22:38;;;;;;;9.90;3.00;;;10.00;67.40;;;;;;5003197;28;20647;-61
2023/12/25 08:25:04;;;;;;;6.20;3.20;;;10.00;67.30;;;;;;5001850;28;20033;-62
2023/12/25 08:27:30;;;;;;;10.13;3.33;;;10.00;67.10;;;;;;4984344;28;20084;-61
2023/12/25 08:29:56;;;;;;;12.95;5.05;;;10.10;67.00;;;;;;4999684;28;20045;-61
2023/12/25 08:32:21;;;;;;;11.90;4.55;;;10.10;66.80;;;;;;4999944;28;20099;-60
2023/12/25 08:34:47;;;;;;;16.00;7.05;;;10.10;66.70;;;;;;4999497;28;20821;-62
2023/12/25 08:37:13;;;;;;;14.13;6.25;;;10.10;66.80;;;;;;5000611;28;20030;-61
2023/12/25 08:39:38;;;;;;;10.55;4.93;;;10.20;66.80;;;;;;5002504;28;20037;-61
2023/12/25 08:42:04;;;;;;;14.00;4.88;;;10.20;66.80;;;;;;5000530;28;20105;-61
2023/12/25 08:44:32;;;;;;;7.57;3.70;;;10.20;67.00;;;;;;5001119;28;20053;-60
2023/12/25 08:46:58;;;;;;;5.65;2.90;;;10.20;67.10;;;;;;4999492;28;20029;-61
2023/12/25 08:49:25;;;;;;;6.70;2.97;;;10.30;67.30;;;;;;4999143;28;20026;-61
2023/12/25 08:51:50;;;;;;;16.65;4.35;;;10.30;67.20;;;;;;4984714;28;20026;-60
2023/12/25 08:54:17;;;;;;;9.38;5.20;;;10.40;67.30;;;;;;5001426;28;20536;-60
2023/12/25 08:56:43;;;;;;;8.77;3.90;;;10.40;66.90;;;;;;4998985;28;20029;-60
2023/12/25 08:59:09;;;;;;;6.15;3.47;;;10.50;66.60;;;;;;4998478;28;20092;-61
2023/12/25 09:01:35;;;;;;;8.15;3.88;;;10.60;66.50;;;;;;5001439;28;20096;-61
2023/12/25 09:04:00;;;;;;;7.30;4.60;;;10.60;66.30;;;;;;5006509;28;20044;-61
2023/12/25 09:06:26;;;;;;;10.13;5.63;;;10.70;66.10;;;;;;4999541;28;20057;-61
2023/12/25 09:08:52;;;;;;;6.82;4.30;;;10.80;66.00;;;;;;5004698;28;20057;-60
2023/12/25 09:11:18;;;;;;;7.03;4.07;;;10.80;66.30;;;;;;4985564;28;20042;-61
2023/12/25 09:13:44;;;;;;;6.15;3.80;;;10.90;66.40;;;;;;5002461;28;20026;-60
2023/12/25 09:16:10;;;;;;;20.45;9.27;;;11.00;65.90;;;;;;5000515;28;20045;-59
2023/12/25 09:18:36;;;;;;;11.32;4.82;;;11.10;65.60;;;;;;5006224;28;20119;-60
2023/12/25 09:21:02;;;;;;;11.57;5.45;;;11.10;65.30;;;;;;4985994;28;20117;-59
2023/12/25 09:23:28;;;;;;;7.15;3.88;;;11.20;65.20;;;;;;5002430;28;20041;-60
2023/12/25 09:25:54;;;;;;;6.28;3.30;;;11.20;65.10;;;;;;4986650;28;20030;-60
2023/12/25 09:28:20;;;;;;;7.05;3.75;;;11.30;65.30;;;;;;5000994;28;20596;-59
2023/12/25 09:30:46;;;;;;;7.53;4.45;;;11.30;65.00;;;;;;5011796;28;20108;-60
2023/12/25 09:33:12;;;;;;;12.00;5.43;;;11.40;64.70;;;;;;5011194;28;20101;-60
2023/12/25 09:35:37;;;;;;;10.15;5.45;;;11.50;64.70;;;;;;5001140;28;20062;-60
2023/12/25 09:38:03;;;;;;;10.57;5.93;;;11.60;65.00;;;;;;5003745;28;20053;-60
2023/12/25 09:40:30;;;;;;;6.10;4.35;;;11.70;64.80;;;;;;5004920;28;20434;-61
2023/12/25 09:43:01;;;;;;;12.18;8.50;;;11.80;64.10;;;;;;5004354;28;20080;-59
2023/12/25 09:45:36;;;;;;;8.77;5.32;;;11.80;63.80;;;;;;4928757;28;20026;-60
2023/12/25 09:48:02;;;;;;;6.32;4.05;;;11.90;63.20;;;;;;5004938;28;20068;-60
2023/12/25 09:50:30;;;;;;;4.97;3.10;;;12.00;63.40;;;;;;5005082;28;20041;-62
2023/12/25 09:52:55;;;;;;;2.90;2.25;;;12.00;63.30;;;;;;5004906;28;20141;-60
2023/12/25 09:55:21;;;;;;;1.70;1.55;;;12.10;63.00;;;;;;4987577;28;20048;-60
2023/12/25 09:57:47;;;;;;;2.50;1.83;;;12.10;62.60;;;;;;5004236;28;20030;-60
2023/12/25 10:00:13;;;;;;;2.15;1.35;;;12.20;62.60;;;;;;5004683;28;20049;-59
2023/12/25 10:02:45;;;;;;;1.90;1.60;;;12.20;62.10;;;;;;5000509;28;20034;-60
2023/12/25 10:05:12;;;;;;;2.67;1.70;;;12.30;61.40;;;;;;5005244;28;20511;-60
2023/12/25 10:07:38;;;;;;;1.83;1.48;;;12.30;61.70;;;;;;5006021;28;20443;-60
2023/12/25 10:10:05;;;;;;;1.70;1.10;;;12.40;61.80;;;;;;5005354;28;20084;-60
2023/12/25 10:12:31;;;;;;;2.47;1.70;;;12.40;62.00;;;;;;5004327;28;20781;-61
2023/12/25 10:14:56;;;;;;;3.08;1.70;;;12.50;61.90;;;;;;5004048;28;20026;-60
2023/12/25 10:17:22;;;;;;;8.77;5.35;;;12.60;61.60;;;;;;4999062;28;20030;-61
2023/12/25 10:19:55;;;;;;;6.28;4.15;;;12.70;61.50;;;;;;5003767;28;20527;-60
2023/12/25 10:22:47;;;;;;;4.43;2.60;;;12.70;60.50;;;;;;5003482;28;20555;-61
2023/12/25 10:25:14;;;;;;;3.72;1.95;;;12.80;60.20;;;;;;5001161;28;20456;-60
2023/12/25 10:27:43;;;;;;;2.85;1.90;;;12.90;61.10;;;;;;5004888;28;20034;-60
2023/12/25 10:30:22;;;;;;;1.65;1.27;;;13.00;60.50;;;;;;5006299;28;20030;-60
2023/12/25 10:32:50;;;;;;;2.83;1.52;;;13.00;59.70;;;;;;5003521;28;20034;-61
2023/12/25 10:35:20;;;;;;;3.10;1.70;;;13.10;60.10;;;;;;5001403;28;20136;-60
2023/12/25 10:37:46;;;;;;;4.18;2.10;;;13.20;59.60;;;;;;5000490;28;20034;-59
2023/12/25 10:40:18;;;;;;;2.40;1.60;;;13.20;59.30;;;;;;4990081;28;20327;-60
2023/12/25 10:42:47;;;;;;;1.33;1.10;;;13.30;58.40;;;;;;5000844;28;20030;-59
2023/12/25 10:45:24;;;;;;;2.78;1.13;;;13.30;58.50;;;;;;4944070;28;20026;-60
2023/12/25 10:47:55;;;;;;;1.02;0.93;;;13.40;57.90;;;;;;4999133;28;20049;-62
2023/12/25 10:50:26;;;;;;;2.83;1.80;;;13.50;57.60;;;;;;5003199;28;20113;-61
2023/12/25 10:52:53;;;;;;;2.35;1.70;;;13.60;58.00;;;;;;5002748;28;20046;-62
2023/12/25 10:55:42;;;;;;;1.25;1.10;;;13.70;57.50;;;;;;5004269;28;20915;-60
2023/12/25 10:58:12;;;;;;;2.05;0.98;;;13.70;56.30;;;;;;4990089;28;20073;-60
2023/12/25 11:00:49;;;;;;;1.10;1.00;;;13.70;57.40;;;;;;5006421;28;20030;-59
2023/12/25 11:03:15;;;;;;;1.50;0.80;;;13.80;56.80;;;;;;5002408;28;20159;-60
2023/12/25 11:05:41;;;;;;;1.38;1.05;;;13.90;57.20;;;;;;5003743;28;20108;-60
2023/12/25 11:08:12;;;;;;;2.17;1.27;;;13.90;57.40;;;;;;5005689;28;20132;-62
2023/12/25 11:10:39;;;;;;;1.95;1.02;;;14.00;57.00;;;;;;5007981;28;20038;-62
2023/12/25 11:13:06;;;;;;;0.68;0.68;;;14.10;57.50;;;;;;5004731;28;20065;-61
2023/12/25 11:15:32;;;;;;;0.80;0.80;;;14.20;57.10;;;;;;4995080;28;20065;-61
2023/12/25 11:17:59;;;;;;;1.55;1.10;;;14.20;57.50;;;;;;5004136;28;20104;-60
2023/12/25 11:20:25;;;;;;;0.95;0.90;;;14.30;57.80;;;;;;5003378;28;20030;-60
2023/12/25 11:22:55;;;;;;;1.52;0.80;;;14.40;57.90;;;;;;5002410;28;20028;-61
2023/12/25 11:25:21;;;;;;;0.60;0.60;;;14.40;57.70;;;;;;5003089;28;20042;-61
2023/12/25 11:27:53;;;;;;;0.73;0.60;;;14.50;57.40;;;;;;5003127;28;20046;-61
2023/12/25 11:30:20;;;;;;;0.63;0.63;;;14.60;57.70;;;;;;5001694;28;20034;-61
2023/12/25 11:32:49;;;;;;;0.50;0.50;;;14.70;57.40;;;;;;5002796;28;20030;-60
2023/12/25 11:35:15;;;;;;;0.50;0.50;;;14.70;57.20;;;;;;5002831;28;20618;-61
2023/12/25 11:37:41;;;;;;;0.90;0.60;;;14.80;57.40;;;;;;5001744;28;20026;-61
2023/12/25 11:40:08;;;;;;;0.73;0.70;;;14.80;56.10;;;;;;5002497;28;20044;-60
2023/12/25 11:42:37;;;;;;;1.00;0.90;;;14.90;56.80;;;;;;5001125;28;20026;-61
2023/12/25 11:45:09;;;;;;;1.17;0.63;;;14.90;56.80;;;;;;4928495;28;20497;-62
2023/12/25 11:47:45;;;;;;;0.60;0.60;;;14.90;57.10;;;;;;5003725;28;20038;-61
2023/12/25 11:50:14;;;;;;;0.50;0.50;;;14.90;56.80;;;;;;4998721;28;20083;-61
2023/12/25 11:52:46;;;;;;;0.63;0.60;;;15.00;57.10;;;;;;5002180;28;20026;-61
2023/12/25 11:55:19;;;;;;;0.40;0.40;;;15.00;57.00;;;;;;5003678;28;20084;-61
2023/12/25 11:57:45;;;;;;;1.10;0.50;;;15.00;56.80;;;;;;5001234;28;20033;-61
2023/12/25 12:00:23;;;;;;;0.75;0.65;;;15.00;57.20;;;;;;5002310;28;20056;-61
2023/12/25 12:02:49;;;;;;;3.00;0.77;;;15.00;56.50;;;;;;5002416;28;20056;-62
2023/12/25 12:05:16;;;;;;;0.60;0.50;;;15.00;56.90;;;;;;5002408;28;20033;-61
2023/12/25 12:07:42;;;;;;;1.15;0.60;;;15.00;57.10;;;;;;5001954;28;20041;-62
2023/12/25 12:10:09;;;;;;;0.65;0.60;;;15.00;57.10;;;;;;5004157;28;20447;-61
2023/12/25 12:12:38;;;;;;;0.68;0.68;;;15.00;57.10;;;;;;4985876;28;20026;-61
2023/12/25 12:15:05;;;;;;;0.60;0.52;;;15.00;57.00;;;;;;5001428;28;20109;-61
2023/12/25 12:17:32;;;;;;;2.17;0.70;;;14.90;56.40;;;;;;5000372;28;20034;-61
2023/12/25 12:19:58;;;;;;;2.35;0.57;;;14.90;57.00;;;;;;4988549;28;20036;-62
2023/12/25 12:22:25;;;;;;;0.47;0.47;;;14.90;57.10;;;;;;5000976;28;20045;-61
2023/12/25 12:24:52;;;;;;;0.70;0.60;;;14.80;57.10;;;;;;4999372;28;20022;-60
2023/12/25 12:27:21;;;;;;;0.55;0.50;;;14.80;57.20;;;;;;4979493;28;20475;-60
2023/12/25 12:29:50;;;;;;;0.90;0.90;;;14.80;57.40;;;;;;5000820;28;20180;-61
2023/12/25 12:32:17;;;;;;;0.80;0.50;;;14.70;57.40;;;;;;4998649;28;20521;-61
2023/12/25 12:34:43;;;;;;;0.50;0.50;;;14.70;57.60;;;;;;5000915;28;20037;-61
2023/12/25 12:37:09;;;;;;;0.40;0.40;;;14.70;57.60;;;;;;5000431;28;20439;-60
2023/12/25 12:39:36;;;;;;;0.50;0.50;;;14.70;57.80;;;;;;5001357;28;20516;-61
2023/12/25 12:42:09;;;;;;;1.63;0.50;;;14.60;57.80;;;;;;5000358;28;20034;-60
2023/12/25 12:44:35;;;;;;;0.88;0.52;;;14.60;57.70;;;;;;4982106;28;20032;-59
2023/12/25 12:47:01;;;;;;;0.80;0.60;;;14.50;58.00;;;;;;4941448;28;20025;-61